Time;durP1;ratioP1;P1;durP2;ratioP2;P2;SDS_P1;SDS_P2;PMS_P1;PMS_P2;Temp;Humidity;BMP_temperature;BMP_pressure;BME280_temperature;BME280_humidity;BME280_pressure;Samples;Min_cycle;Max_cycle;Signal;HPM_P1;HPM_P2
2023/08/16 00:00:36;;;;;;;13.38;12.07;;;18.00;99.90;;;;;;5049633;28;20097;-82
2023/08/16 00:03:04;;;;;;;14.35;12.93;;;17.90;99.90;;;;;;5047628;28;20057;-81
2023/08/16 00:05:33;;;;;;;14.82;13.20;;;17.90;99.90;;;;;;5043479;28;20042;-82
2023/08/16 00:08:20;;;;;;;14.70;13.05;;;17.80;99.90;;;;;;5044008;28;20061;-83
2023/08/16 00:10:50;;;;;;;14.73;13.32;;;17.80;99.90;;;;;;5046241;28;20041;-83
2023/08/16 00:13:22;;;;;;;14.02;12.52;;;17.90;99.90;;;;;;5043683;28;20497;-82
2023/08/16 00:15:50;;;;;;;15.27;13.60;;;17.70;99.90;;;;;;5030530;28;20623;-83
2023/08/16 00:18:17;;;;;;;15.27;13.68;;;17.70;99.90;;;;;;5025018;28;20073;-83
2023/08/16 00:20:47;;;;;;;15.15;13.63;;;17.60;99.90;;;;;;5039778;28;20046;-84
2023/08/16 00:23:36;;;;;;;14.98;13.40;;;17.60;99.90;;;;;;5026003;28;20096;-86
2023/08/16 00:26:04;;;;;;;15.27;13.50;;;17.60;99.90;;;;;;5024695;28;20108;-83
2023/08/16 00:28:31;;;;;;;15.18;13.43;;;17.60;99.90;;;;;;5026281;28;20066;-84
2023/08/16 00:30:59;;;;;;;17.60;13.88;;;17.50;99.90;;;;;;5027340;28;20046;-84
2023/08/16 00:33:26;;;;;;;14.45;12.40;;;17.50;99.90;;;;;;5030214;28;20038;-84
2023/08/16 00:35:55;;;;;;;15.05;13.05;;;17.50;99.90;;;;;;5027898;28;20104;-82
2023/08/16 00:38:23;;;;;;;14.68;13.13;;;17.50;99.90;;;;;;5035252;28;20068;-83
2023/08/16 00:40:51;;;;;;;12.90;11.52;;;17.50;99.90;;;;;;5037824;28;20050;-81
2023/08/16 00:43:20;;;;;;;13.98;12.25;;;17.60;99.90;;;;;;5039431;28;20041;-84
2023/08/16 00:45:49;;;;;;;13.25;11.80;;;17.50;99.90;;;;;;5032496;28;20052;-83
2023/08/16 00:48:18;;;;;;;15.80;12.82;;;17.50;99.90;;;;;;5029819;28;20180;-83
2023/08/16 00:50:46;;;;;;;14.95;12.80;;;17.50;99.90;;;;;;5028004;28;20068;-82
2023/08/16 00:53:18;;;;;;;15.38;12.75;;;17.50;99.90;;;;;;5031461;28;20982;-82
2023/08/16 00:55:47;;;;;;;14.07;12.60;;;17.50;99.90;;;;;;5052999;28;20036;-82
2023/08/16 00:58:15;;;;;;;14.13;12.32;;;17.40;99.90;;;;;;5045597;28;20040;-83
2023/08/16 01:00:45;;;;;;;13.55;12.25;;;17.40;99.90;;;;;;5046696;28;20090;-82
2023/08/16 01:03:13;;;;;;;14.43;12.13;;;17.50;99.90;;;;;;5049914;28;20022;-81
2023/08/16 01:05:41;;;;;;;13.30;11.90;;;17.50;99.90;;;;;;5056277;28;20051;-83
2023/08/16 01:08:08;;;;;;;15.70;11.82;;;17.40;99.90;;;;;;5033454;28;20045;-82
2023/08/16 01:10:45;;;;;;;13.63;12.02;;;17.40;99.90;;;;;;5035810;28;20077;-83
2023/08/16 01:13:57;;;;;;;14.13;12.10;;;17.40;99.90;;;;;;5019789;28;20489;-81
2023/08/16 01:16:27;;;;;;;14.40;12.95;;;17.40;99.90;;;;;;5032211;28;20054;-82
2023/08/16 01:18:54;;;;;;;13.70;12.13;;;17.40;99.90;;;;;;5026627;28;20065;-83
2023/08/16 01:21:24;;;;;;;14.02;12.65;;;17.30;99.90;;;;;;5032072;28;20060;-81
2023/08/16 01:24:04;;;;;;;14.25;12.88;;;17.30;99.90;;;;;;5033741;28;20095;-81
2023/08/16 01:26:35;;;;;;;15.52;13.82;;;17.30;99.90;;;;;;5024772;28;20499;-82
2023/08/16 01:29:05;;;;;;;17.05;13.30;;;17.40;99.90;;;;;;5024125;28;20045;-82
2023/08/16 01:31:34;;;;;;;46.67;33.83;;;17.50;99.90;;;;;;5027243;28;20052;-82
2023/08/16 01:34:03;;;;;;;15.40;13.18;;;17.50;99.90;;;;;;5021884;28;20049;-83
2023/08/16 01:36:30;;;;;;;19.90;17.63;;;17.50;99.90;;;;;;5043788;28;20037;-82
2023/08/16 01:38:58;;;;;;;14.38;12.88;;;17.60;99.90;;;;;;5047270;28;20132;-83
2023/08/16 01:41:30;;;;;;;13.35;11.95;;;17.60;99.90;;;;;;5048455;28;20037;-82
2023/08/16 01:44:00;;;;;;;14.07;12.65;;;17.60;99.90;;;;;;5046136;28;20062;-82
2023/08/16 01:46:29;;;;;;;15.65;11.70;;;17.70;99.90;;;;;;5042858;28;20068;-82
2023/08/16 01:48:58;;;;;;;14.00;12.15;;;17.70;99.90;;;;;;5038455;28;20041;-82
2023/08/16 01:51:26;;;;;;;13.38;11.75;;;17.70;99.90;;;;;;5037384;28;20060;-81
2023/08/16 01:53:54;;;;;;;14.75;12.23;;;17.60;99.90;;;;;;5033727;28;20084;-83
2023/08/16 01:56:22;;;;;;;13.30;11.90;;;17.60;99.90;;;;;;5041119;28;20046;-82
2023/08/16 01:58:50;;;;;;;14.20;12.18;;;17.60;99.90;;;;;;5034789;28;20038;-83
2023/08/16 02:01:19;;;;;;;13.30;11.98;;;17.60;99.90;;;;;;5031291;28;20107;-83
2023/08/16 02:03:48;;;;;;;12.98;11.60;;;17.70;99.90;;;;;;5029099;28;20141;-83
2023/08/16 02:06:15;;;;;;;13.52;11.63;;;17.80;99.90;;;;;;5026847;28;20045;-85
2023/08/16 02:08:43;;;;;;;14.30;12.63;;;17.70;99.90;;;;;;5028526;28;20061;-83
2023/08/16 02:11:10;;;;;;;13.52;12.23;;;17.50;99.90;;;;;;5028112;28;20099;-85
2023/08/16 02:13:37;;;;;;;13.63;12.27;;;17.40;99.90;;;;;;5026812;28;20049;-83
2023/08/16 02:16:05;;;;;;;13.95;12.55;;;17.50;99.90;;;;;;5030989;28;20049;-82
2023/08/16 02:18:35;;;;;;;14.15;11.93;;;17.60;99.90;;;;;;5038737;28;20105;-82
2023/08/16 02:21:03;;;;;;;15.73;12.45;;;17.60;99.90;;;;;;5032181;28;20089;-83
2023/08/16 02:23:31;;;;;;;15.88;12.70;;;17.60;99.90;;;;;;5028907;28;20033;-83
2023/08/16 02:25:58;;;;;;;14.23;12.77;;;17.70;99.90;;;;;;5030695;28;20054;-84
2023/08/16 02:28:25;;;;;;;15.60;12.73;;;17.70;99.90;;;;;;5043676;28;20029;-82
2023/08/16 02:30:53;;;;;;;13.48;12.13;;;17.70;99.90;;;;;;5049705;28;20133;-82
2023/08/16 02:33:20;;;;;;;13.52;12.10;;;17.70;99.90;;;;;;5030456;28;20049;-83
2023/08/16 02:35:50;;;;;;;15.25;12.77;;;17.70;99.90;;;;;;5031387;28;20048;-83
2023/08/16 02:38:19;;;;;;;12.68;11.48;;;17.80;99.90;;;;;;5030607;28;20050;-84
2023/08/16 02:40:46;;;;;;;15.77;12.48;;;17.80;99.90;;;;;;5037720;28;20409;-82
2023/08/16 02:43:13;;;;;;;15.85;12.15;;;17.80;99.90;;;;;;5029450;28;20042;-82
2023/08/16 02:45:41;;;;;;;13.13;11.82;;;17.80;99.90;;;;;;5029215;28;20062;-82
2023/08/16 02:48:09;;;;;;;14.02;12.48;;;17.80;99.90;;;;;;5015201;28;20069;-85
2023/08/16 02:50:37;;;;;;;13.50;12.10;;;17.80;99.90;;;;;;5031729;28;20103;-83
2023/08/16 02:53:08;;;;;;;14.20;12.80;;;17.80;99.90;;;;;;5030844;28;20046;-82
2023/08/16 02:55:35;;;;;;;15.77;12.40;;;17.90;99.90;;;;;;5044748;22;20106;-85
2023/08/16 02:58:03;;;;;;;15.93;11.57;;;17.90;99.90;;;;;;5031258;28;20052;-85
2023/08/16 03:00:30;;;;;;;15.07;12.52;;;18.00;99.90;;;;;;5031056;28;20075;-86
2023/08/16 03:02:58;;;;;;;13.35;11.93;;;18.00;99.90;;;;;;5027907;28;20049;-85
2023/08/16 03:05:25;;;;;;;13.90;11.68;;;18.00;99.90;;;;;;5044948;28;20520;-85
2023/08/16 03:07:53;;;;;;;13.32;11.93;;;18.10;99.90;;;;;;5027889;28;20053;-85
2023/08/16 03:10:22;;;;;;;12.93;11.50;;;18.10;99.90;;;;;;5028746;28;20047;-85
2023/08/16 03:12:49;;;;;;;13.23;11.85;;;18.10;99.90;;;;;;5028468;28;20088;-84
2023/08/16 03:15:16;;;;;;;13.27;11.95;;;18.20;99.90;;;;;;5029872;28;20722;-84
2023/08/16 03:17:44;;;;;;;13.57;12.10;;;18.20;99.90;;;;;;5028716;28;20050;-85
2023/08/16 03:20:12;;;;;;;13.57;12.27;;;18.30;99.90;;;;;;5045401;28;20210;-85
2023/08/16 03:22:40;;;;;;;15.95;11.90;;;18.30;99.90;;;;;;5029366;28;20092;-84
2023/08/16 03:25:08;;;;;;;15.05;12.55;;;18.30;99.90;;;;;;5034523;28;20042;-83
2023/08/16 03:27:37;;;;;;;12.77;11.45;;;18.30;99.90;;;;;;5027816;28;20120;-82
2023/08/16 03:30:06;;;;;;;14.77;12.13;;;18.40;99.90;;;;;;5030391;28;20041;-85
2023/08/16 03:32:33;;;;;;;13.05;11.75;;;18.40;99.90;;;;;;5028826;28;20148;-84
2023/08/16 03:35:02;;;;;;;15.02;12.13;;;18.40;99.90;;;;;;5027931;28;20049;-84
2023/08/16 03:37:31;;;;;;;13.60;12.20;;;18.40;99.90;;;;;;5042519;28;20060;-85
2023/08/16 03:39:59;;;;;;;14.20;12.70;;;18.50;99.90;;;;;;5027907;28;20049;-85
2023/08/16 03:42:26;;;;;;;15.00;13.40;;;18.60;99.90;;;;;;5028476;28;20535;-85
2023/08/16 03:44:55;;;;;;;14.75;13.23;;;18.60;99.90;;;;;;5031038;28;20111;-85
2023/08/16 03:47:22;;;;;;;15.30;12.93;;;18.60;99.90;;;;;;5044496;28;20045;-84
2023/08/16 03:49:50;;;;;;;15.38;12.52;;;18.60;99.90;;;;;;5046999;28;20049;-84
2023/08/16 03:52:18;;;;;;;13.10;11.80;;;18.60;99.90;;;;;;5032314;28;20144;-85
2023/08/16 03:54:45;;;;;;;14.73;11.93;;;18.60;99.90;;;;;;5032977;28;20073;-84
2023/08/16 03:57:12;;;;;;;16.23;12.93;;;18.60;99.90;;;;;;5042600;28;20053;-86
2023/08/16 03:59:40;;;;;;;14.63;12.95;;;18.60;99.90;;;;;;5067964;28;20033;-84
2023/08/16 04:02:08;;;;;;;15.15;12.45;;;18.60;99.90;;;;;;5035118;28;20088;-85
2023/08/16 04:04:37;;;;;;;15.10;12.32;;;18.60;99.90;;;;;;5032847;28;20398;-85
2023/08/16 04:07:05;;;;;;;13.40;11.90;;;18.50;99.90;;;;;;5028943;28;20452;-84
2023/08/16 04:09:32;;;;;;;15.88;12.35;;;18.50;99.90;;;;;;5029303;28;20107;-85
2023/08/16 04:11:59;;;;;;;14.13;12.65;;;18.40;99.90;;;;;;5030601;28;20481;-85
2023/08/16 04:14:27;;;;;;;16.15;13.45;;;18.40;99.90;;;;;;5030988;28;20140;-83
2023/08/16 04:16:56;;;;;;;15.65;13.32;;;18.50;99.90;;;;;;5029431;28;20041;-86
2023/08/16 04:19:25;;;;;;;13.52;11.90;;;18.60;99.90;;;;;;5027417;28;20092;-85
2023/08/16 04:21:53;;;;;;;16.25;12.73;;;18.50;99.90;;;;;;5029226;28;20049;-84
2023/08/16 04:24:20;;;;;;;15.13;13.13;;;18.50;99.90;;;;;;5045341;28;20049;-84
2023/08/16 04:26:47;;;;;;;14.90;12.75;;;18.60;99.90;;;;;;5031135;28;20038;-85
2023/08/16 04:29:14;;;;;;;16.15;14.13;;;18.50;99.90;;;;;;5029384;28;20038;-83
2023/08/16 04:31:42;;;;;;;15.48;13.85;;;18.50;99.90;;;;;;5027526;28;20616;-84
2023/08/16 04:34:09;;;;;;;19.38;14.13;;;18.50;99.90;;;;;;5027774;28;20132;-82
2023/08/16 04:36:38;;;;;;;16.30;13.80;;;18.50;99.90;;;;;;5025224;28;20052;-82
2023/08/16 04:39:07;;;;;;;16.20;14.27;;;18.50;99.90;;;;;;5028234;28;20516;-83
2023/08/16 04:41:35;;;;;;;16.42;14.02;;;18.40;99.90;;;;;;5042880;28;20060;-82
2023/08/16 04:44:03;;;;;;;17.08;15.32;;;18.30;99.90;;;;;;5028667;28;20057;-82
2023/08/16 04:46:31;;;;;;;17.00;13.65;;;18.30;99.90;;;;;;5025203;28;20057;-82
2023/08/16 04:48:59;;;;;;;15.15;13.45;;;18.40;99.90;;;;;;5026969;28;20052;-81
2023/08/16 04:51:26;;;;;;;15.52;13.88;;;18.40;99.90;;;;;;5028291;28;20129;-82
2023/08/16 04:53:55;;;;;;;16.02;14.27;;;18.50;99.90;;;;;;5026959;28;20045;-82
2023/08/16 04:56:24;;;;;;;16.73;14.65;;;18.50;99.90;;;;;;5025188;28;20386;-82
2023/08/16 04:58:51;;;;;;;17.80;16.00;;;18.60;99.90;;;;;;5026893;28;20136;-82
2023/08/16 05:01:20;;;;;;;21.08;17.23;;;18.60;99.90;;;;;;5025985;28;20559;-82
2023/08/16 05:03:50;;;;;;;20.33;18.25;;;18.60;99.90;;;;;;5042111;28;20056;-82
2023/08/16 05:06:19;;;;;;;21.00;18.90;;;18.50;99.90;;;;;;5042313;28;20587;-81
2023/08/16 05:08:48;;;;;;;23.38;19.55;;;18.60;99.90;;;;;;5027248;28;20041;-82
2023/08/16 05:11:19;;;;;;;20.58;18.48;;;18.60;99.90;;;;;;5024753;28;20046;-81
2023/08/16 05:13:46;;;;;;;20.92;18.90;;;18.60;99.90;;;;;;5047303;28;20038;-81
2023/08/16 05:16:14;;;;;;;19.23;17.20;;;18.60;99.90;;;;;;5045063;28;20493;-82
2023/08/16 05:18:41;;;;;;;20.40;18.38;;;18.60;99.90;;;;;;5030383;28;20464;-81
2023/08/16 05:21:09;;;;;;;24.45;19.55;;;18.60;99.90;;;;;;5046062;28;20053;-82
2023/08/16 05:23:36;;;;;;;19.13;16.80;;;18.60;99.90;;;;;;5032373;28;20045;-82
2023/08/16 05:26:03;;;;;;;19.10;17.15;;;18.80;99.90;;;;;;5031458;28;20076;-81
2023/08/16 05:28:32;;;;;;;18.77;16.83;;;18.80;99.90;;;;;;5028487;28;20041;-82
2023/08/16 05:31:07;;;;;;;18.25;16.35;;;18.80;99.90;;;;;;5031030;28;20037;-82
2023/08/16 05:33:35;;;;;;;21.50;16.92;;;19.00;99.90;;;;;;5031847;28;20068;-81
2023/08/16 05:36:02;;;;;;;18.00;15.45;;;19.10;99.90;;;;;;5031711;28;20108;-77
2023/08/16 05:38:30;;;;;;;21.95;17.50;;;19.30;99.90;;;;;;5048711;28;20033;-80
2023/08/16 05:40:57;;;;;;;20.33;16.38;;;19.40;99.90;;;;;;5069997;28;20056;-82
2023/08/16 05:43:24;;;;;;;21.20;18.52;;;19.50;99.90;;;;;;5055225;28;20045;-81
2023/08/16 05:45:53;;;;;;;19.50;15.60;;;19.60;99.90;;;;;;5032723;28;20122;-82
2023/08/16 05:48:21;;;;;;;20.58;18.02;;;19.80;99.90;;;;;;5031445;28;20071;-81
2023/08/16 05:50:49;;;;;;;25.25;21.75;;;19.90;99.90;;;;;;5032372;28;20096;-81
2023/08/16 05:53:16;;;;;;;33.45;26.02;;;20.00;99.90;;;;;;5034223;28;20052;-81
2023/08/16 05:55:43;;;;;;;31.50;26.63;;;20.20;99.90;;;;;;5033607;28;20041;-81
2023/08/16 05:58:10;;;;;;;21.88;16.48;;;20.30;99.90;;;;;;5032006;28;20530;-82
2023/08/16 06:00:38;;;;;;;19.67;16.60;;;20.30;99.90;;;;;;5030315;28;20052;-81
2023/08/16 06:03:07;;;;;;;20.38;17.00;;;20.40;99.90;;;;;;5031577;28;20037;-80
2023/08/16 06:05:35;;;;;;;23.92;17.40;;;20.40;99.90;;;;;;5029742;28;20056;-82
2023/08/16 06:08:02;;;;;;;27.75;16.98;;;20.40;99.90;;;;;;5030060;28;20056;-83
2023/08/16 06:10:29;;;;;;;25.65;19.98;;;20.50;99.90;;;;;;5029139;28;20493;-81
2023/08/16 06:12:57;;;;;;;27.77;22.02;;;20.70;99.90;;;;;;5031343;28;20505;-81
2023/08/16 06:15:24;;;;;;;29.45;22.23;;;20.80;99.90;;;;;;5030560;28;20045;-81
2023/08/16 06:17:51;;;;;;;26.35;20.17;;;21.00;99.90;;;;;;5029801;28;20183;-82
2023/08/16 06:20:20;;;;;;;26.88;19.63;;;21.10;99.90;;;;;;5028282;28;20052;-81
2023/08/16 06:22:48;;;;;;;29.83;20.08;;;21.20;99.90;;;;;;5029478;28;20038;-82
2023/08/16 06:25:15;;;;;;;29.33;21.95;;;21.20;99.90;;;;;;5027325;28;20129;-82
2023/08/16 06:27:42;;;;;;;29.80;20.38;;;21.30;99.90;;;;;;5029745;28;20049;-81
2023/08/16 06:30:11;;;;;;;31.92;22.88;;;21.30;99.90;;;;;;5032748;28;20037;-81
2023/08/16 06:32:39;;;;;;;32.83;25.33;;;21.10;99.90;;;;;;5034535;28;20068;-82
2023/08/16 06:35:08;;;;;;;35.72;25.45;;;21.00;99.90;;;;;;5033726;28;20077;-81
2023/08/16 06:37:38;;;;;;;32.97;24.77;;;21.00;99.90;;;;;;5031557;28;20049;-81
2023/08/16 06:40:07;;;;;;;31.90;24.13;;;21.00;99.90;;;;;;5041432;28;20072;-82
2023/08/16 06:42:34;;;;;;;31.80;24.00;;;21.00;99.90;;;;;;5037925;28;20115;-81
2023/08/16 06:45:01;;;;;;;25.95;20.30;;;21.00;99.90;;;;;;5031023;28;20034;-82
2023/08/16 06:47:29;;;;;;;22.15;16.92;;;20.80;99.90;;;;;;5028450;28;20049;-80
2023/08/16 06:49:56;;;;;;;23.65;17.50;;;20.70;99.90;;;;;;5035665;28;20025;-82
2023/08/16 06:52:23;;;;;;;24.73;21.23;;;20.60;99.90;;;;;;5050994;28;20316;-82
2023/08/16 06:54:52;;;;;;;25.52;20.55;;;20.50;99.90;;;;;;5046763;28;20050;-81
2023/08/16 06:57:19;;;;;;;24.33;19.35;;;20.60;99.90;;;;;;5046287;28;20075;-82
2023/08/16 06:59:47;;;;;;;21.30;18.95;;;20.70;99.90;;;;;;5050907;28;20045;-82
2023/08/16 07:02:15;;;;;;;27.75;21.58;;;20.70;99.90;;;;;;5051946;28;20069;-81
2023/08/16 07:04:43;;;;;;;24.25;18.50;;;20.80;99.90;;;;;;5051652;28;20073;-84
2023/08/16 07:07:11;;;;;;;19.50;17.15;;;20.90;99.90;;;;;;5052088;28;20057;-83
2023/08/16 07:09:39;;;;;;;25.63;19.35;;;20.80;99.90;;;;;;5048884;28;20060;-81
2023/08/16 07:12:09;;;;;;;21.70;18.92;;;20.80;99.90;;;;;;5038885;28;20057;-82
2023/08/16 07:14:36;;;;;;;22.25;18.20;;;20.90;99.90;;;;;;5037659;28;20049;-82
2023/08/16 07:17:05;;;;;;;20.75;18.42;;;20.80;99.90;;;;;;5039887;28;20041;-82
2023/08/16 07:19:32;;;;;;;31.40;21.25;;;20.70;99.90;;;;;;5036762;28;20049;-81
2023/08/16 07:21:59;;;;;;;31.50;24.02;;;20.70;99.90;;;;;;5037747;28;20513;-81
2023/08/16 07:24:27;;;;;;;31.00;26.02;;;20.70;99.90;;;;;;5034468;28;20045;-82
2023/08/16 07:26:54;;;;;;;31.75;26.23;;;20.80;99.90;;;;;;5050895;28;20544;-81
2023/08/16 07:29:23;;;;;;;32.00;25.55;;;20.80;99.90;;;;;;5033262;28;20056;-82
2023/08/16 07:31:54;;;;;;;30.13;24.63;;;20.80;99.90;;;;;;5036956;28;20061;-81
2023/08/16 07:34:22;;;;;;;32.97;26.02;;;21.00;99.90;;;;;;5034371;28;20690;-89
2023/08/16 07:36:50;;;;;;;32.20;24.17;;;21.30;99.90;;;;;;5032375;28;20099;-85
2023/08/16 07:39:20;;;;;;;36.00;29.08;;;21.70;99.90;;;;;;5034514;28;20111;-85
2023/08/16 07:41:48;;;;;;;87.90;63.63;;;22.10;99.90;;;;;;5036822;28;20041;-83
2023/08/16 07:44:16;;;;;;;64.20;47.28;;;22.60;99.90;;;;;;5044444;28;20041;-81
2023/08/16 07:46:44;;;;;;;70.32;45.53;;;23.00;99.90;;;;;;5052475;28;20065;-85
2023/08/16 07:49:12;;;;;;;218.88;160.82;;;23.20;99.90;;;;;;5052551;28;20049;-83
2023/08/16 07:51:39;;;;;;;61.00;37.97;;;23.50;99.90;;;;;;5047182;28;20049;-85
2023/08/16 07:54:21;;;;;;;52.97;36.63;;;23.60;99.90;;;;;;5033482;28;20049;-84
2023/08/16 07:56:48;;;;;;;56.33;38.42;;;23.80;99.90;;;;;;5027671;28;20053;-86
2023/08/16 07:59:15;;;;;;;55.90;36.92;;;23.90;99.90;;;;;;5029390;28;20409;-81
2023/08/16 08:01:45;;;;;;;57.97;38.80;;;24.10;99.90;;;;;;5032102;28;20069;-83
2023/08/16 08:04:12;;;;;;;58.88;36.95;;;24.30;99.90;;;;;;5023521;28;20072;-82
2023/08/16 08:06:39;;;;;;;54.75;37.53;;;24.40;99.90;;;;;;5019618;28;20087;-80
2023/08/16 08:09:07;;;;;;;51.88;38.30;;;24.50;99.90;;;;;;5018018;28;20033;-82
2023/08/16 08:11:34;;;;;;;51.03;35.50;;;24.50;99.90;;;;;;5025223;28;20057;-83
2023/08/16 08:14:01;;;;;;;50.75;37.47;;;24.70;99.90;;;;;;5033330;28;20088;-81
2023/08/16 08:16:29;;;;;;;53.55;38.72;;;24.70;99.90;;;;;;5034154;28;20520;-83
2023/08/16 08:18:57;;;;;;;44.80;34.95;;;24.70;99.90;;;;;;5015306;28;20045;-82
2023/08/16 08:21:25;;;;;;;48.20;34.30;;;24.70;99.90;;;;;;5018884;28;20509;-82
2023/08/16 08:23:52;;;;;;;43.10;32.15;;;24.60;99.90;;;;;;5018635;28;20037;-81
2023/08/16 08:26:20;;;;;;;41.60;30.40;;;24.60;99.90;;;;;;5016911;28;20093;-82
2023/08/16 08:28:47;;;;;;;45.35;32.05;;;24.60;99.90;;;;;;5030480;28;20041;-83
2023/08/16 08:31:15;;;;;;;47.95;31.95;;;24.60;99.90;;;;;;5030387;28;20041;-81
2023/08/16 08:33:45;;;;;;;48.50;31.60;;;24.80;99.90;;;;;;5026734;28;20111;-83
2023/08/16 08:36:13;;;;;;;43.80;31.70;;;25.00;99.90;;;;;;5016919;28;20048;-81
2023/08/16 08:38:42;;;;;;;37.38;28.13;;;25.20;99.90;;;;;;5019699;28;20132;-83
2023/08/16 08:41:09;;;;;;;39.72;27.48;;;25.60;99.90;;;;;;5017997;28;20052;-80
2023/08/16 08:43:38;;;;;;;42.58;29.88;;;25.70;99.90;;;;;;5017520;28;20560;-82
2023/08/16 08:46:06;;;;;;;33.72;24.13;;;26.00;99.90;;;;;;5017039;28;20077;-80
2023/08/16 08:48:34;;;;;;;28.83;23.27;;;26.10;99.90;;;;;;5017584;28;20472;-79
2023/08/16 08:51:03;;;;;;;29.55;21.65;;;26.00;99.90;;;;;;5016325;28;20422;-79
2023/08/16 08:53:32;;;;;;;26.75;20.48;;;26.00;99.90;;;;;;5019172;28;20068;-82
2023/08/16 08:56:08;;;;;;;26.42;20.30;;;26.10;99.90;;;;;;5017928;28;20104;-84
2023/08/16 08:58:41;;;;;;;27.75;19.70;;;26.20;99.90;;;;;;5017703;28;20525;-82
2023/08/16 09:01:10;;;;;;;21.15;17.55;;;26.40;99.90;;;;;;5014856;28;20124;-82
2023/08/16 09:03:39;;;;;;;25.10;17.90;;;26.50;99.90;;;;;;5018764;28;20480;-82
2023/08/16 09:06:06;;;;;;;23.55;17.80;;;26.50;99.90;;;;;;5018702;28;20042;-81
2023/08/16 09:08:37;;;;;;;21.40;17.45;;;26.50;99.90;;;;;;5017246;28;20612;-83
2023/08/16 09:11:05;;;;;;;18.25;15.32;;;26.70;99.90;;;;;;5015597;28;20041;-81
2023/08/16 09:13:33;;;;;;;20.77;15.00;;;27.00;99.90;;;;;;5015754;28;20123;-80
2023/08/16 09:16:01;;;;;;;18.48;14.93;;;27.40;99.90;;;;;;5015528;28;20491;-81
2023/08/16 09:18:29;;;;;;;16.73;14.38;;;27.60;99.90;;;;;;5018090;28;20564;-82
2023/08/16 09:20:59;;;;;;;15.30;13.60;;;27.80;99.90;;;;;;5019050;28;20502;-81
2023/08/16 09:23:27;;;;;;;17.00;15.00;;;27.80;99.90;;;;;;5017574;28;20065;-82
2023/08/16 09:25:57;;;;;;;16.33;14.65;;;27.80;99.90;;;;;;5018112;28;20042;-81
2023/08/16 09:28:30;;;;;;;19.65;16.70;;;27.80;99.90;;;;;;5017180;28;20041;-81
2023/08/16 09:30:57;;;;;;;18.85;16.85;;;27.50;99.90;;;;;;5017701;28;20175;-81
2023/08/16 09:33:25;;;;;;;22.25;19.77;;;27.30;99.90;;;;;;5018524;28;20091;-81
2023/08/16 09:35:58;;;;;;;22.58;20.02;;;27.20;99.90;;;;;;5015357;28;20049;-82
2023/08/16 09:38:25;;;;;;;19.65;16.77;;;27.20;99.90;;;;;;5033663;28;20046;-80
2023/08/16 09:40:54;;;;;;;21.00;17.52;;;27.00;99.90;;;;;;5017578;28;20100;-79
2023/08/16 09:43:24;;;;;;;20.92;18.73;;;26.70;99.90;;;;;;5017170;28;20400;-79
2023/08/16 09:45:53;;;;;;;22.20;19.90;;;26.50;99.90;;;;;;5031566;28;20046;-80
2023/08/16 09:48:21;;;;;;;22.17;19.98;;;26.30;99.90;;;;;;5018612;28;20050;-81
2023/08/16 09:50:49;;;;;;;21.33;18.98;;;26.20;99.90;;;;;;5020746;28;20037;-82
2023/08/16 09:53:16;;;;;;;22.90;20.55;;;26.10;99.90;;;;;;5018862;28;20088;-81
2023/08/16 09:55:49;;;;;;;24.30;20.35;;;26.00;99.90;;;;;;5016926;28;20062;-82
2023/08/16 09:58:18;;;;;;;26.33;22.27;;;25.80;99.90;;;;;;5017685;28;20084;-80
2023/08/16 10:00:48;;;;;;;25.05;20.85;;;25.70;99.90;;;;;;5018527;28;20123;-82
2023/08/16 10:03:16;;;;;;;28.63;23.17;;;25.80;99.90;;;;;;5019926;28;20042;-81
2023/08/16 10:05:45;;;;;;;25.90;21.27;;;26.00;99.90;;;;;;5021009;28;20041;-80
2023/08/16 10:08:13;;;;;;;31.08;22.85;;;26.40;99.90;;;;;;5020940;28;20092;-81
2023/08/16 10:10:40;;;;;;;28.30;23.33;;;26.60;99.90;;;;;;5018996;28;20087;-81
2023/08/16 10:13:08;;;;;;;24.35;21.33;;;27.00;99.90;;;;;;5034080;28;20049;-80
2023/08/16 10:15:38;;;;;;;22.02;19.73;;;27.40;99.90;;;;;;5034719;28;20050;-82
2023/08/16 10:18:09;;;;;;;23.60;20.40;;;27.20;99.90;;;;;;5032027;28;20042;-80
2023/08/16 10:20:41;;;;;;;23.23;19.83;;;27.20;99.90;;;;;;5021355;28;20108;-82
2023/08/16 10:23:13;;;;;;;22.67;19.50;;;26.90;99.90;;;;;;5024600;28;20056;-82
2023/08/16 10:25:45;;;;;;;23.08;20.73;;;26.90;99.90;;;;;;5019949;28;20050;-81
2023/08/16 10:28:16;;;;;;;29.02;23.10;;;26.90;99.90;;;;;;5022385;28;20050;-82
2023/08/16 10:30:46;;;;;;;28.20;24.77;;;27.10;99.90;;;;;;5017043;28;20107;-80
2023/08/16 10:33:18;;;;;;;22.00;19.70;;;27.10;99.90;;;;;;5018877;28;20100;-81
2023/08/16 10:35:50;;;;;;;22.05;19.73;;;27.10;99.90;;;;;;5021041;28;20050;-81
2023/08/16 10:38:19;;;;;;;23.27;19.85;;;26.90;99.90;;;;;;5021753;28;20045;-83
2023/08/16 10:40:57;;;;;;;27.52;24.42;;;26.60;99.90;;;;;;5019031;28;20049;-80
2023/08/16 10:43:32;;;;;;;29.85;24.50;;;26.20;99.90;;;;;;5019687;28;20042;-82
2023/08/16 10:45:59;;;;;;;30.17;27.10;;;25.90;99.90;;;;;;5017478;28;20119;-83
2023/08/16 10:48:33;;;;;;;30.17;26.95;;;25.70;99.90;;;;;;5020387;28;20048;-81
2023/08/16 10:51:04;;;;;;;25.50;22.80;;;25.60;99.90;;;;;;5019268;28;20112;-81
2023/08/16 10:53:31;;;;;;;26.77;23.98;;;25.60;99.90;;;;;;5009608;28;20505;-82
2023/08/16 10:55:59;;;;;;;26.90;24.13;;;25.60;99.90;;;;;;5024455;28;21017;-79
2023/08/16 10:58:28;;;;;;;29.83;25.38;;;25.70;99.90;;;;;;5030397;28;20049;-81
2023/08/16 11:00:58;;;;;;;26.08;23.48;;;25.70;99.90;;;;;;5029899;28;20560;-82
2023/08/16 11:03:33;;;;;;;28.85;25.67;;;25.70;99.90;;;;;;5029657;28;20121;-83
2023/08/16 11:06:01;;;;;;;;;;;25.80;99.90;;;;;;5030092;28;20122;-82
2023/08/16 11:08:31;;;;;;;29.15;25.17;;;26.00;99.90;;;;;;5029920;28;20368;-82
2023/08/16 11:10:59;;;;;;;28.17;24.80;;;26.10;99.90;;;;;;5028644;28;20045;-80
2023/08/16 11:13:29;;;;;;;30.45;22.75;;;26.40;99.90;;;;;;5029391;28;20127;-80
2023/08/16 11:15:56;;;;;;;36.13;31.95;;;26.70;99.90;;;;;;5027821;28;20049;-82
2023/08/16 11:18:28;;;;;;;25.98;23.17;;;27.00;99.90;;;;;;5029028;28;20086;-80
2023/08/16 11:20:59;;;;;;;26.30;22.90;;;27.10;99.90;;;;;;5043903;28;20103;-82
2023/08/16 11:23:32;;;;;;;28.35;25.27;;;27.10;99.90;;;;;;5030466;28;20503;-82
2023/08/16 11:26:00;;;;;;;27.30;24.60;;;27.20;99.90;;;;;;5028844;28;20110;-82
2023/08/16 11:28:28;;;;;;;27.70;24.95;;;27.50;99.90;;;;;;5029379;28;20053;-83
2023/08/16 11:30:59;;;;;;;28.40;24.77;;;27.80;99.90;;;;;;5027571;28;20088;-85
2023/08/16 11:33:32;;;;;;;28.92;25.20;;;28.10;99.90;;;;;;5025685;28;20068;-82
2023/08/16 11:36:06;;;;;;;27.08;24.20;;;27.80;99.90;;;;;;5033911;28;20589;-86
2023/08/16 11:38:34;;;;;;;25.13;22.55;;;27.80;99.90;;;;;;5029340;28;20561;-81
2023/08/16 11:41:02;;;;;;;25.88;23.27;;;27.80;99.90;;;;;;5029098;28;20225;-80
2023/08/16 11:43:31;;;;;;;30.17;26.95;;;27.70;99.90;;;;;;5028348;28;20041;-79
2023/08/16 11:46:01;;;;;;;25.35;22.95;;;27.50;99.90;;;;;;5028381;28;20052;-80
2023/08/16 11:48:29;;;;;;;30.05;27.02;;;27.40;99.90;;;;;;5028823;28;20485;-82
2023/08/16 11:50:58;;;;;;;29.25;26.10;;;27.20;99.90;;;;;;5028149;28;20037;-81
2023/08/16 11:53:33;;;;;;;29.50;26.23;;;27.50;99.90;;;;;;5029188;28;20453;-79
2023/08/16 11:56:01;;;;;;;;;;;27.80;99.90;;;;;;5028849;28;20398;-80
2023/08/16 11:58:43;;;;;;;32.00;28.70;;;28.10;99.90;;;;;;5028491;28;20023;-87
2023/08/16 12:01:14;;;;;;;27.50;24.65;;;28.30;99.90;;;;;;5030346;28;20057;-83
2023/08/16 12:03:41;;;;;;;28.77;26.13;;;28.50;99.90;;;;;;5029688;28;20087;-84
2023/08/16 12:06:10;;;;;;;30.48;27.52;;;28.40;99.90;;;;;;5027700;28;20049;-80
2023/08/16 12:08:49;;;;;;;31.75;28.75;;;28.10;99.90;;;;;;5025406;28;20043;-82
2023/08/16 12:11:26;;;;;;;33.10;29.90;;;28.40;99.90;;;;;;5029596;28;20038;-82
2023/08/16 12:13:54;;;;;;;29.65;26.65;;;28.80;99.90;;;;;;5028566;28;20061;-82
2023/08/16 12:16:21;;;;;;;29.13;25.80;;;29.20;99.90;;;;;;5026673;28;20046;-82
2023/08/16 12:18:50;;;;;;;28.65;25.67;;;29.60;99.90;;;;;;5026799;28;20073;-83
2023/08/16 12:21:17;;;;;;;28.70;25.80;;;29.90;99.90;;;;;;5025839;28;20045;-81
2023/08/16 12:23:46;;;;;;;29.67;26.85;;;29.80;99.90;;;;;;5018807;28;21209;-81
2023/08/16 12:26:14;;;;;;;30.25;27.42;;;29.50;99.90;;;;;;5017969;28;20056;-81
2023/08/16 12:28:41;;;;;;;29.40;26.55;;;29.20;99.90;;;;;;5019067;28;20054;-82
2023/08/16 12:31:08;;;;;;;30.08;27.17;;;28.90;99.90;;;;;;5020282;28;20556;-82
2023/08/16 12:33:36;;;;;;;33.63;30.02;;;28.40;99.90;;;;;;5023764;28;20382;-81
2023/08/16 12:36:04;;;;;;;33.05;29.73;;;28.00;99.90;;;;;;5023409;28;20045;-85